createdAt,value
2018-12-02T00:00:18.874Z,4.20
2018-12-02T00:02:54.221Z,4.20
2018-12-02T00:08:39.046Z,4.30
2018-12-02T00:11:07.293Z,4.30
2018-12-02T00:13:35.470Z,4.30
2018-12-02T00:16:03.678Z,4.30
2018-12-02T00:18:31.963Z,4.20
2018-12-02T00:21:00.183Z,4.20
2018-12-02T00:23:28.345Z,4.20
2018-12-02T00:25:56.597Z,4.00
2018-12-02T00:28:24.842Z,3.90
2018-12-02T00:30:52.992Z,3.90
2018-12-02T00:33:21.294Z,3.90
2018-12-02T00:35:49.510Z,3.80
2018-12-02T00:38:17.698Z,3.70
2018-12-02T00:40:45.897Z,3.60
2018-12-02T00:43:14.204Z,3.40
2018-12-02T00:53:07.870Z,3.80
2018-12-02T00:55:38.673Z,3.40
2018-12-02T00:58:06.882Z,3.40
2018-12-02T01:00:35.167Z,3.40
2018-12-02T01:03:03.494Z,3.30
2018-12-02T01:05:31.665Z,3.20
2018-12-02T01:07:59.833Z,3.20
2018-12-02T01:10:28.021Z,3.20
2018-12-02T01:12:57.305Z,3.20
2018-12-02T01:15:26.623Z,3.20
2018-12-02T01:17:54.824Z,3.20
2018-12-02T01:20:23.679Z,3.30
2018-12-02T01:22:51.841Z,3.20
2018-12-02T01:25:20.017Z,3.30
2018-12-02T01:27:48.253Z,3.40
2018-12-02T01:30:18.236Z,3.40
2018-12-02T01:32:46.455Z,3.50
2018-12-02T01:35:15.593Z,3.40
2018-12-02T01:37:43.805Z,3.50
2018-12-02T01:40:14.987Z,3.40
2018-12-02T01:42:43.141Z,3.50
2018-12-02T01:45:15.387Z,3.70
2018-12-02T01:47:43.562Z,3.40
2018-12-02T01:50:15.591Z,3.30
2018-12-02T01:52:45.626Z,3.20
2018-12-02T01:55:13.777Z,3.40
2018-12-02T02:00:13.917Z,3.10
2018-12-02T02:02:42.106Z,3.10
2018-12-02T02:05:10.295Z,3.10
2018-12-02T02:07:38.477Z,3.10
2018-12-02T02:10:11.607Z,3.00
2018-12-02T02:12:39.950Z,3.00
2018-12-02T02:15:09.706Z,3.00
2018-12-02T02:17:37.898Z,2.90
2018-12-02T02:20:11.879Z,2.90
2018-12-02T02:22:40.040Z,2.90
2018-12-02T02:25:10.093Z,2.90
2018-12-02T02:27:38.684Z,2.90
2018-12-02T02:30:13.637Z,2.90
2018-12-02T02:32:41.865Z,2.80
2018-12-02T02:35:10.454Z,2.90
2018-12-02T02:37:38.822Z,2.80
2018-12-02T02:40:14.228Z,2.80
2018-12-02T02:42:42.371Z,2.80
2018-12-02T02:45:11.266Z,2.80
2018-12-02T02:47:39.483Z,2.80
2018-12-02T02:50:12.808Z,2.80
2018-12-02T02:52:41.598Z,2.90
2018-12-02T02:55:09.783Z,2.80
2018-12-02T02:57:37.928Z,2.70
2018-12-02T03:00:12.581Z,2.50
2018-12-02T03:02:40.827Z,2.60
2018-12-02T03:05:09.956Z,2.60
2018-12-02T03:07:38.151Z,2.60
2018-12-02T03:10:09.516Z,2.50
2018-12-02T03:12:37.705Z,2.70
2018-12-02T03:15:07.852Z,2.60
2018-12-02T03:17:36.101Z,2.60
2018-12-02T03:20:06.037Z,2.60
2018-12-02T03:25:02.163Z,2.50
2018-12-02T03:27:30.341Z,2.50
2018-12-02T03:29:58.491Z,2.60
2018-12-02T03:32:26.649Z,2.60
2018-12-02T03:34:54.803Z,2.60
2018-12-02T03:37:22.947Z,2.70
2018-12-02T03:39:51.109Z,2.60
2018-12-02T03:42:19.303Z,2.60
2018-12-02T03:44:47.588Z,2.70
2018-12-02T03:47:15.743Z,2.60
2018-12-02T03:49:43.913Z,2.50
2018-12-02T03:52:12.069Z,2.50
2018-12-02T03:54:40.222Z,2.60
2018-12-02T03:57:08.392Z,2.50
2018-12-02T03:59:36.638Z,2.40
2018-12-02T04:02:04.912Z,2.50
2018-12-02T04:04:33.056Z,2.50
2018-12-02T04:07:01.292Z,2.50
2018-12-02T04:09:29.493Z,2.50
2018-12-02T04:11:57.786Z,2.50
2018-12-02T04:14:26.016Z,3.50
2018-12-02T04:16:54.270Z,2.60
2018-12-02T04:19:22.456Z,2.60
2018-12-02T04:21:51.524Z,2.80
2018-12-02T04:24:18.894Z,2.60
2018-12-02T04:26:47.157Z,2.60
2018-12-02T04:29:15.416Z,2.60
2018-12-02T04:31:43.685Z,2.60
2018-12-02T04:34:11.933Z,2.60
2018-12-02T04:36:40.135Z,2.60
2018-12-02T04:39:08.843Z,2.70
2018-12-02T04:41:37.094Z,2.70
2018-12-02T04:44:05.600Z,2.80
2018-12-02T04:46:33.857Z,2.80
2018-12-02T04:49:02.098Z,2.80
2018-12-02T04:51:30.405Z,2.90
2018-12-02T04:54:05.024Z,2.90
2018-12-02T04:56:33.254Z,2.90
2018-12-02T04:59:01.440Z,2.90
2018-12-02T05:01:29.649Z,2.90
2018-12-02T05:03:57.841Z,2.90
2018-12-02T05:06:26.101Z,2.90
2018-12-02T05:08:54.250Z,2.90
2018-12-02T05:11:22.528Z,3.00
2018-12-02T05:13:50.735Z,2.90
2018-12-02T05:16:18.876Z,3.00
2018-12-02T05:18:47.030Z,3.00
2018-12-02T05:21:15.169Z,3.10
2018-12-02T05:23:43.308Z,3.10
2018-12-02T05:26:11.557Z,3.20
2018-12-02T05:28:39.730Z,3.10
2018-12-02T05:31:07.909Z,3.20
2018-12-02T05:33:36.086Z,3.30
2018-12-02T05:36:04.389Z,3.30
2018-12-02T05:38:32.524Z,3.30
2018-12-02T05:41:00.669Z,3.40
2018-12-02T05:43:28.822Z,3.40
2018-12-02T05:45:57.045Z,3.50
2018-12-02T05:48:25.218Z,3.50
2018-12-02T05:50:53.362Z,3.50
2018-12-02T05:53:21.514Z,3.60
2018-12-02T05:55:49.695Z,3.60
2018-12-02T05:58:17.861Z,3.50
2018-12-02T06:00:46.075Z,3.50
2018-12-02T06:03:14.265Z,3.60
2018-12-02T06:05:42.413Z,3.60
2018-12-02T06:08:10.602Z,3.60
2018-12-02T06:10:38.749Z,3.60
2018-12-02T06:13:06.938Z,3.50
2018-12-02T06:15:35.085Z,3.60
2018-12-02T06:18:03.317Z,3.50
2018-12-02T06:22:59.421Z,3.60
2018-12-02T06:27:55.568Z,3.60
2018-12-02T06:30:26.803Z,3.60
2018-12-02T06:32:55.993Z,3.60
2018-12-02T06:35:24.149Z,3.70
2018-12-02T06:37:53.903Z,3.80
2018-12-02T06:40:23.852Z,3.70
2018-12-02T06:42:52.581Z,3.70
2018-12-02T06:45:21.066Z,3.80
2018-12-02T06:47:49.234Z,3.90
2018-12-02T06:50:20.354Z,3.90
2018-12-02T06:52:48.524Z,4.10
2018-12-02T06:55:18.637Z,4.40
2018-12-02T06:57:48.248Z,4.40
2018-12-02T07:00:25.366Z,4.40
2018-12-02T07:03:04.574Z,4.40
2018-12-02T07:05:35.400Z,4.30
2018-12-02T07:08:03.591Z,4.30
2018-12-02T07:10:31.745Z,4.30
2018-12-02T07:12:59.929Z,4.30
2018-12-02T07:15:28.083Z,4.40
2018-12-02T07:17:56.237Z,4.70
2018-12-02T07:20:24.420Z,4.70
2018-12-02T07:22:52.676Z,4.60
2018-12-02T07:25:20.822Z,4.60
2018-12-02T07:27:48.960Z,4.60
2018-12-02T07:30:17.106Z,4.60
2018-12-02T07:32:45.272Z,4.50
2018-12-02T07:35:14.136Z,4.50
2018-12-02T07:37:45.365Z,4.60
2018-12-02T07:40:21.628Z,4.50
2018-12-02T07:42:49.853Z,4.60
2018-12-02T07:45:18.009Z,4.60
2018-12-02T07:47:46.201Z,4.60
2018-12-02T07:50:14.345Z,4.50
2018-12-02T07:52:42.561Z,4.60
2018-12-02T07:55:10.695Z,4.60
2018-12-02T07:57:38.839Z,4.60
2018-12-02T08:00:12.512Z,4.60
2018-12-02T08:02:40.941Z,4.70
2018-12-02T08:05:12.309Z,4.70
2018-12-02T08:07:40.869Z,4.80
2018-12-02T08:10:11.433Z,4.80
2018-12-02T08:12:39.649Z,4.70
2018-12-02T08:15:11.441Z,4.70
2018-12-02T08:17:39.656Z,4.70
2018-12-02T08:20:11.772Z,4.60
2018-12-02T08:22:40.111Z,4.70
2018-12-02T08:25:11.489Z,4.70
2018-12-02T08:27:39.689Z,4.60
2018-12-02T08:30:12.650Z,4.60
2018-12-02T08:32:40.930Z,4.60
2018-12-02T08:35:10.021Z,4.60
2018-12-02T08:37:39.142Z,4.50
2018-12-02T08:40:10.882Z,4.60
2018-12-02T08:42:39.098Z,4.60
2018-12-02T08:45:12.577Z,5.50
2018-12-02T08:47:41.336Z,4.90
2018-12-02T08:50:11.153Z,4.50
2018-12-02T08:52:39.340Z,4.90
2018-12-02T08:55:10.187Z,4.80
2018-12-02T08:57:38.426Z,4.80
2018-12-02T09:00:10.659Z,4.80
2018-12-02T09:02:38.857Z,4.90
2018-12-02T09:05:09.515Z,4.90
2018-12-02T09:07:37.717Z,5.00
2018-12-02T09:10:10.686Z,5.10
2018-12-02T09:12:38.940Z,5.10
2018-12-02T09:15:08.685Z,5.20
2018-12-02T09:17:36.995Z,5.20
2018-12-02T09:20:10.983Z,5.30
2018-12-02T09:22:39.674Z,5.30
2018-12-02T09:25:08.867Z,5.40
2018-12-02T09:27:37.204Z,5.50
2018-12-02T09:30:12.347Z,5.50
2018-12-02T09:32:40.558Z,5.60
2018-12-02T09:35:09.625Z,5.70
2018-12-02T09:37:37.868Z,5.60
2018-12-02T09:40:09.945Z,5.70
2018-12-02T09:42:38.382Z,5.80
2018-12-02T09:45:10.609Z,5.80
2018-12-02T09:47:38.849Z,5.90
2018-12-02T09:50:14.657Z,6.00
2018-12-02T09:52:42.864Z,6.00
2018-12-02T09:55:16.792Z,6.10
2018-12-02T09:57:45.086Z,6.10
2018-12-02T10:00:15.929Z,6.20
2018-12-02T10:02:44.129Z,6.30
2018-12-02T10:05:12.336Z,6.40
2018-12-02T10:07:40.647Z,6.40
2018-12-02T10:10:13.332Z,6.50
2018-12-02T10:12:42.909Z,6.60
2018-12-02T10:15:12.621Z,6.50
2018-12-02T10:17:40.884Z,6.60
2018-12-02T10:20:15.449Z,6.70
2018-12-02T10:22:44.508Z,6.70
2018-12-02T10:25:13.917Z,6.90
2018-12-02T10:27:42.076Z,6.90
2018-12-02T10:30:12.670Z,7.00
2018-12-02T10:32:40.841Z,7.00
2018-12-02T10:35:08.998Z,7.00
2018-12-02T10:37:37.198Z,7.00
2018-12-02T10:40:08.997Z,7.00
2018-12-02T10:42:37.214Z,6.90
2018-12-02T10:45:06.826Z,7.00
2018-12-02T10:47:34.974Z,7.00
2018-12-02T10:50:03.171Z,7.10
2018-12-02T10:52:31.312Z,7.20
2018-12-02T10:54:59.488Z,7.30
2018-12-02T10:57:27.685Z,7.30
2018-12-02T10:59:55.852Z,7.40
2018-12-02T11:02:24.029Z,7.40
2018-12-02T11:04:52.208Z,7.50
2018-12-02T11:07:20.377Z,7.60
2018-12-02T11:09:48.553Z,7.80
2018-12-02T11:12:16.718Z,7.80
2018-12-02T11:14:44.908Z,8.20
2018-12-02T11:17:13.794Z,7.90
2018-12-02T11:24:37.859Z,8.30
2018-12-02T11:27:07.434Z,8.70
2018-12-02T11:29:35.593Z,8.80
2018-12-02T11:32:03.744Z,8.90
2018-12-02T11:34:31.941Z,9.00
2018-12-02T11:37:00.697Z,9.00
2018-12-02T11:39:28.890Z,9.10
2018-12-02T11:41:57.032Z,9.10
2018-12-02T11:44:25.194Z,9.10
2018-12-02T11:46:53.379Z,9.10
2018-12-02T11:49:21.536Z,9.20
2018-12-02T11:51:49.790Z,9.20
2018-12-02T11:54:17.971Z,9.40
2018-12-02T11:56:46.136Z,9.40
2018-12-02T11:59:14.318Z,9.50
2018-12-02T12:01:42.612Z,9.60
2018-12-02T12:04:10.845Z,9.60
2018-12-02T12:06:39.002Z,9.70
2018-12-02T12:09:08.478Z,9.70
2018-12-02T12:11:36.693Z,9.70
2018-12-02T12:14:04.954Z,9.60
2018-12-02T12:16:33.198Z,9.60
2018-12-02T12:19:01.393Z,9.90
2018-12-02T12:23:57.549Z,9.50
2018-12-02T12:26:25.778Z,9.60
2018-12-02T12:28:53.989Z,9.60
2018-12-02T12:31:22.193Z,9.50
2018-12-02T12:33:50.434Z,9.50
2018-12-02T12:36:18.625Z,9.40
2018-12-02T12:38:46.953Z,9.40
2018-12-02T12:41:15.388Z,9.40
2018-12-02T12:43:44.868Z,9.40
2018-12-02T12:46:13.180Z,9.40
2018-12-02T12:48:41.434Z,9.40
2018-12-02T12:51:09.628Z,9.40
2018-12-02T12:53:37.845Z,9.40
2018-12-02T12:56:06.091Z,9.40
2018-12-02T12:58:34.322Z,9.40
2018-12-02T13:01:02.683Z,9.40
2018-12-02T13:03:30.889Z,9.50
2018-12-02T13:05:59.147Z,9.60
2018-12-02T13:08:27.370Z,9.70
2018-12-02T13:10:55.589Z,9.90
2018-12-02T13:13:23.877Z,9.30
2018-12-02T13:15:52.127Z,10.00
2018-12-02T13:18:20.391Z,10.00
2018-12-02T13:20:52.586Z,9.90
2018-12-02T13:23:20.907Z,10.10
2018-12-02T13:25:49.171Z,10.10
2018-12-02T13:28:17.404Z,10.20
2018-12-02T13:30:45.645Z,10.20
2018-12-02T13:33:13.907Z,10.30
2018-12-02T13:35:42.129Z,10.30
2018-12-02T13:38:10.358Z,10.30
2018-12-02T13:40:39.741Z,10.30
2018-12-02T13:43:12.874Z,10.40
2018-12-02T13:45:41.131Z,10.40
2018-12-02T13:48:09.329Z,10.50
2018-12-02T13:50:37.562Z,10.50
2018-12-02T13:53:06.473Z,10.50
2018-12-02T13:55:34.768Z,10.60
2018-12-02T13:58:02.968Z,10.50
2018-12-02T14:00:31.484Z,10.60
2018-12-02T14:03:06.824Z,10.60
2018-12-02T14:05:36.104Z,10.60
2018-12-02T14:08:04.339Z,10.60
2018-12-02T14:10:32.636Z,10.60
2018-12-02T14:13:02.567Z,10.60
2018-12-02T14:16:35.356Z,10.60
2018-12-02T14:19:07.605Z,10.70
2018-12-02T14:21:35.803Z,10.60
2018-12-02T14:24:05.633Z,10.70
2018-12-02T14:26:33.862Z,10.70
2018-12-02T14:29:06.674Z,10.80
2018-12-02T14:31:36.359Z,10.80
2018-12-02T14:34:05.285Z,10.80
2018-12-02T14:39:01.486Z,10.90
2018-12-02T14:41:29.665Z,10.40
2018-12-02T14:43:57.928Z,10.90
2018-12-02T14:46:26.171Z,10.90
2018-12-02T14:48:54.337Z,10.90
2018-12-02T14:51:22.550Z,10.90
2018-12-02T14:53:50.793Z,10.90
2018-12-02T14:56:18.965Z,10.90
2018-12-02T14:58:47.292Z,10.80
2018-12-02T15:01:15.491Z,10.80
2018-12-02T15:03:43.681Z,10.80
2018-12-02T15:06:11.862Z,10.80
2018-12-02T15:08:40.043Z,10.80
2018-12-02T15:11:08.316Z,10.70
2018-12-02T15:13:36.509Z,10.70
2018-12-02T15:16:05.013Z,10.70
2018-12-02T15:18:33.309Z,10.70
2018-12-02T15:21:08.446Z,10.70
2018-12-02T15:23:36.670Z,10.60
2018-12-02T15:26:05.037Z,10.50
2018-12-02T15:28:33.280Z,10.50
2018-12-02T15:31:01.458Z,10.30
2018-12-02T15:33:29.595Z,10.40
2018-12-02T15:35:57.794Z,10.90
2018-12-02T15:38:26.048Z,10.50
2018-12-02T15:45:56.725Z,10.30
2018-12-02T15:48:24.941Z,10.30
2018-12-02T15:50:53.141Z,10.30
2018-12-02T15:53:21.346Z,10.30
2018-12-02T15:55:49.553Z,10.30
2018-12-02T15:58:17.867Z,10.40
2018-12-02T16:00:46.814Z,10.50
2018-12-02T16:03:15.084Z,10.50
2018-12-02T16:05:43.317Z,10.50
2018-12-02T16:08:11.566Z,10.40
2018-12-02T16:10:39.868Z,10.40
2018-12-02T16:13:09.687Z,10.40
2018-12-02T16:15:37.996Z,10.40
2018-12-02T16:18:08.983Z,10.40
2018-12-02T16:20:48.079Z,10.30
2018-12-02T16:23:20.758Z,10.30
2018-12-02T16:25:48.997Z,10.30
2018-12-02T16:28:17.238Z,10.20
2018-12-02T16:30:45.527Z,10.10
2018-12-02T16:33:13.868Z,10.10
2018-12-02T16:35:42.110Z,10.10
2018-12-02T16:38:11.834Z,10.00
2018-12-02T16:40:40.088Z,10.00
2018-12-02T16:43:09.420Z,10.00
2018-12-02T16:45:39.804Z,10.00
2018-12-02T16:50:40.170Z,10.10
2018-12-02T16:53:22.629Z,10.10
2018-12-02T16:55:58.394Z,10.00
2018-12-02T17:01:02.456Z,10.10
2018-12-02T17:03:30.665Z,10.10
2018-12-02T17:05:58.918Z,10.10
2018-12-02T17:08:27.101Z,10.10
2018-12-02T17:10:55.322Z,10.10
2018-12-02T17:13:23.524Z,10.10
2018-12-02T17:15:51.742Z,10.00
2018-12-02T17:18:19.899Z,10.00
2018-12-02T17:20:48.079Z,9.90
2018-12-02T17:23:16.270Z,9.90
2018-12-02T17:25:44.524Z,9.90
2018-12-02T17:28:12.694Z,9.90
2018-12-02T17:30:44.098Z,9.90
2018-12-02T17:33:12.369Z,9.90
2018-12-02T17:35:40.541Z,10.00
2018-12-02T17:38:08.773Z,10.00
2018-12-02T17:40:36.986Z,10.00
2018-12-02T17:43:06.818Z,10.00
2018-12-02T17:45:35.055Z,10.00
2018-12-02T17:48:03.248Z,10.00
2018-12-02T17:50:31.482Z,10.00
2018-12-02T17:55:27.594Z,9.80
2018-12-02T18:00:25.713Z,9.80
2018-12-02T18:02:55.307Z,9.90
2018-12-02T18:05:25.317Z,9.80
2018-12-02T18:07:54.593Z,9.90
2018-12-02T18:10:22.793Z,9.90
2018-12-02T18:12:51.040Z,9.90
2018-12-02T18:15:19.245Z,9.90
2018-12-02T18:17:47.446Z,11.00
2018-12-02T18:20:16.754Z,10.00
2018-12-02T18:22:45.171Z,9.90
2018-12-02T18:25:15.515Z,9.90
2018-12-02T18:27:44.858Z,9.90
2018-12-02T18:30:13.601Z,9.90
2018-12-02T18:32:41.802Z,9.90
2018-12-02T18:35:18.510Z,9.80
2018-12-02T18:37:46.734Z,9.80
2018-12-02T18:40:14.980Z,9.80
2018-12-02T18:42:43.176Z,9.80
2018-12-02T18:45:11.382Z,9.80
2018-12-02T18:47:39.582Z,9.70
2018-12-02T18:50:10.573Z,9.70
2018-12-02T18:52:39.081Z,9.70
2018-12-02T18:55:09.547Z,9.70
2018-12-02T18:57:37.700Z,9.70
2018-12-02T19:00:14.779Z,9.70
2018-12-02T19:02:43.033Z,9.70
2018-12-02T19:05:11.185Z,10.10
2018-12-02T19:07:39.347Z,9.70
2018-12-02T19:10:10.683Z,9.80
2018-12-02T19:12:38.897Z,9.70
2018-12-02T19:15:10.914Z,9.70
2018-12-02T19:17:39.074Z,9.80
2018-12-02T19:20:12.540Z,9.70
2018-12-02T19:22:40.702Z,9.80
2018-12-02T19:25:10.955Z,9.80
2018-12-02T19:27:39.208Z,9.80
2018-12-02T19:30:12.572Z,9.80
2018-12-02T19:32:40.722Z,9.70
2018-12-02T19:35:26.446Z,9.70
2018-12-02T19:37:57.617Z,9.80
2018-12-02T19:40:25.882Z,9.80
2018-12-02T19:42:54.042Z,9.80
2018-12-02T19:45:22.222Z,9.80
2018-12-02T19:47:50.410Z,9.80
2018-12-02T19:50:19.481Z,9.90
2018-12-02T19:52:49.642Z,9.80
2018-12-02T19:55:17.784Z,9.80
2018-12-02T19:57:47.349Z,9.80
2018-12-02T20:00:25.537Z,9.80
2018-12-02T20:02:54.352Z,9.80
2018-12-02T20:05:22.498Z,9.80
2018-12-02T20:07:53.146Z,9.70
2018-12-02T20:10:23.160Z,9.80
2018-12-02T20:12:51.394Z,9.90
2018-12-02T20:15:19.574Z,9.80
2018-12-02T20:17:47.833Z,9.80
2018-12-02T20:20:22.546Z,9.90
2018-12-02T20:22:50.993Z,9.80
2018-12-02T20:25:20.197Z,9.80
2018-12-02T20:27:48.982Z,9.90
2018-12-02T20:30:18.373Z,9.80
2018-12-02T20:32:46.526Z,9.80
2018-12-02T20:35:14.803Z,9.80
2018-12-02T20:37:42.957Z,9.90
2018-12-02T20:40:14.358Z,9.80
2018-12-02T20:42:42.842Z,9.80
2018-12-02T20:45:12.344Z,9.80
2018-12-02T20:47:40.569Z,9.80
2018-12-02T20:50:13.702Z,9.80
2018-12-02T20:52:41.891Z,9.90
2018-12-02T20:55:11.381Z,9.90
2018-12-02T20:57:39.581Z,9.90
2018-12-02T21:00:11.648Z,9.90
2018-12-02T21:02:39.916Z,9.90
2018-12-02T21:05:11.010Z,9.90
2018-12-02T21:07:39.278Z,10.00
2018-12-02T21:10:10.378Z,10.00
2018-12-02T21:12:38.545Z,10.00
2018-12-02T21:15:11.235Z,10.00
2018-12-02T21:17:39.441Z,10.20
2018-12-02T21:20:10.929Z,10.20
2018-12-02T21:22:39.223Z,10.20
2018-12-02T21:25:11.921Z,10.30
2018-12-02T21:27:40.094Z,10.50
2018-12-02T21:30:19.705Z,10.50
2018-12-02T21:32:47.860Z,10.50
2018-12-02T21:35:16.038Z,10.60
2018-12-02T21:37:44.842Z,10.60
2018-12-02T21:40:14.519Z,10.70
2018-12-02T21:42:42.766Z,10.70
2018-12-02T21:45:14.996Z,10.60
2018-12-02T21:47:44.902Z,10.70
2018-12-02T21:50:16.693Z,10.60
2018-12-02T21:52:44.833Z,10.70
2018-12-02T21:55:13.049Z,10.70
2018-12-02T22:02:42.706Z,10.80
2018-12-02T22:05:10.883Z,10.80
2018-12-02T22:07:39.086Z,10.80
2018-12-02T22:10:10.301Z,10.90
2018-12-02T22:12:38.579Z,10.80
2018-12-02T22:15:07.894Z,10.80
2018-12-02T22:17:36.213Z,10.70
2018-12-02T22:20:09.110Z,10.70
2018-12-02T22:22:37.409Z,10.70
2018-12-02T22:25:07.829Z,10.80
2018-12-02T22:27:36.132Z,10.90
2018-12-02T22:30:05.306Z,10.80
2018-12-02T22:32:33.548Z,10.90
2018-12-02T22:35:01.866Z,10.90
2018-12-02T22:37:30.197Z,11.00
2018-12-02T22:39:58.442Z,10.80
2018-12-02T22:42:26.793Z,10.90
2018-12-02T22:44:55.120Z,10.90
2018-12-02T22:47:23.748Z,10.90
2018-12-02T22:49:52.020Z,11.00
2018-12-02T22:52:20.305Z,10.90
2018-12-02T22:54:48.785Z,11.20
2018-12-02T22:57:17.095Z,11.00
2018-12-02T22:59:45.385Z,11.00
2018-12-02T23:02:20.950Z,11.10
2018-12-02T23:04:49.284Z,10.90
2018-12-02T23:07:17.711Z,10.90
2018-12-02T23:09:46.071Z,11.00
2018-12-02T23:12:14.388Z,10.90
2018-12-02T23:14:42.721Z,11.00
2018-12-02T23:17:18.556Z,11.00
2018-12-02T23:19:46.804Z,11.00
2018-12-02T23:22:15.075Z,11.00
2018-12-02T23:24:43.396Z,11.10
2018-12-02T23:27:11.683Z,11.10
2018-12-02T23:29:40.176Z,11.10
2018-12-02T23:32:08.518Z,11.00
2018-12-02T23:34:36.954Z,11.00
2018-12-02T23:37:05.412Z,11.00
2018-12-02T23:39:33.746Z,11.00
2018-12-02T23:42:01.999Z,11.00
2018-12-02T23:44:30.242Z,11.00
2018-12-02T23:46:58.600Z,11.00
2018-12-02T23:49:27.086Z,11.00
2018-12-02T23:51:55.428Z,11.00
2018-12-02T23:54:23.702Z,11.00
2018-12-02T23:56:51.954Z,11.00
2018-12-02T23:59:20.230Z,11.10
